Time;durP1;ratioP1;P1;durP2;ratioP2;P2;SDS_P1;SDS_P2;PMS_P1;PMS_P2;Temp;Humidity;BMP_temperature;BMP_pressure;BME280_temperature;BME280_humidity;BME280_pressure;Samples;Min_cycle;Max_cycle;Signal;HPM_P1;HPM_P2
2023/11/21 00:00:13;;;;;;;2.70;1.35;;;;;;;21.25;45.19;100980.75;5017623;28;20044;-66
2023/11/21 00:02:40;;;;;;;2.90;1.50;;;;;;;21.20;45.44;100972.50;5068740;28;20038;-66
2023/11/21 00:05:10;;;;;;;2.47;1.67;;;;;;;21.24;45.51;100985.22;5009500;28;20042;-66
2023/11/21 00:07:36;;;;;;;;;;;;;;;21.25;45.26;100981.56;5065997;28;20042;-66
2023/11/21 00:10:02;;;;;;;1.20;0.85;;;;;;;21.11;45.42;100964.66;5009323;28;20866;-66
2023/11/21 00:12:29;;;;;;;2.95;1.30;;;;;;;21.21;45.08;100982.91;5058730;28;20620;-66
2023/11/21 00:14:55;;;;;;;3.10;1.55;;;;;;;21.21;45.14;100974.97;5010737;28;20498;-66
2023/11/21 00:17:20;;;;;;;2.00;1.20;;;;;;;21.24;45.18;100987.88;5063743;28;20036;-66
2023/11/21 00:19:46;;;;;;;2.97;1.20;;;;;;;21.23;45.33;100988.03;5003347;28;20052;-66
2023/11/21 00:22:11;;;;;;;2.20;1.23;;;;;;;21.22;45.40;100987.19;5063366;28;20436;-66
2023/11/21 00:24:37;;;;;;;2.10;1.30;;;;;;;21.24;45.34;100987.00;5010261;28;20067;-66
2023/11/21 00:27:03;;;;;;;1.85;1.40;;;;;;;21.18;45.44;100979.78;5056588;28;20512;-66
2023/11/21 00:29:29;;;;;;;1.67;1.25;;;;;;;21.15;45.48;100980.97;5021888;28;20037;-66
2023/11/21 00:31:54;;;;;;;1.88;1.20;;;;;;;21.24;45.36;100994.97;5052476;28;20620;-66
2023/11/21 00:34:20;;;;;;;2.28;1.30;;;;;;;21.24;45.30;100997.59;5005422;28;20109;-66
2023/11/21 00:36:45;;;;;;;2.88;1.77;;;;;;;21.22;45.38;100981.09;5062057;28;20043;-66
2023/11/21 00:39:11;;;;;;;2.55;1.27;;;;;;;21.19;45.23;100973.50;5014036;28;20056;-66
2023/11/21 00:41:37;;;;;;;2.85;1.30;;;;;;;21.22;45.57;100978.44;5060510;28;20060;-66
2023/11/21 00:44:03;;;;;;;2.95;1.40;;;;;;;21.18;45.38;100982.44;4989568;28;20093;-66
2023/11/21 00:46:29;;;;;;;2.88;1.38;;;;;;;21.21;45.36;100992.69;5045382;28;20131;-66
2023/11/21 00:48:55;;;;;;;2.30;1.30;;;;;;;21.21;45.15;100990.03;5005281;28;20819;-66
2023/11/21 00:51:22;;;;;;;1.75;1.25;;;;;;;21.10;45.13;100978.91;5066219;28;20037;-69
2023/11/21 00:53:48;;;;;;;1.52;1.20;;;;;;;21.23;45.29;101002.09;4974124;28;20398;-68
2023/11/21 00:56:14;;;;;;;1.55;1.05;;;;;;;21.20;45.20;101006.94;5044662;28;20094;-68
2023/11/21 00:58:46;;;;;;;2.38;1.60;;;;;;;21.16;45.36;101002.97;5031559;28;20390;-68
2023/11/21 01:01:12;;;;;;;1.60;1.27;;;;;;;21.21;45.15;101008.56;5048434;28;20571;-68
2023/11/21 01:03:38;;;;;;;1.83;1.33;;;;;;;21.24;45.09;101016.16;4987082;28;20098;-68
2023/11/21 01:06:07;;;;;;;2.00;1.30;;;;;;;21.20;45.22;101020.19;5050836;28;20044;-68
2023/11/21 01:12:26;;;;;;;1.50;1.17;;;;;;;21.16;45.15;101018.88;5065248;28;20819;-68
2023/11/21 01:15:25;;;;;;;2.45;1.35;;;;;;;21.20;45.36;101026.28;5012206;28;20588;-68
2023/11/21 01:17:52;;;;;;;2.40;1.42;;;;;;;21.14;45.33;101027.00;5039275;28;20041;-68
2023/11/21 01:20:17;;;;;;;2.28;1.33;;;;;;;21.21;45.35;101037.69;4890663;28;20487;-69
2023/11/21 01:22:44;;;;;;;2.35;1.40;;;;;;;21.18;45.14;101035.41;4961999;28;21648;-74
2023/11/21 01:25:10;;;;;;;1.45;1.17;;;;;;;21.21;45.28;101045.66;4996173;28;20040;-70
2023/11/21 01:27:39;;;;;;;1.70;1.20;;;;;;;21.21;45.02;101043.81;5045777;28;20040;-69
2023/11/21 01:30:07;;;;;;;1.88;1.42;;;;;;;21.20;45.51;101052.78;4979335;28;20067;-68
2023/11/21 01:32:34;;;;;;;3.08;1.55;;;;;;;21.20;45.34;101057.25;4888861;28;20036;-68
2023/11/21 01:35:00;;;;;;;2.75;1.30;;;;;;;21.14;45.20;101058.78;4984016;28;20109;-66
2023/11/21 01:37:27;;;;;;;2.33;1.40;;;;;;;21.15;45.20;101064.91;5038290;28;20048;-66
2023/11/21 01:39:54;;;;;;;1.75;1.42;;;;;;;21.18;45.46;101069.81;4960888;28;20051;-69
2023/11/21 01:42:21;;;;;;;2.08;1.55;;;;;;;21.17;45.23;101076.94;5047631;28;20528;-69
2023/11/21 01:44:46;;;;;;;1.33;1.15;;;;;;;21.18;45.25;101078.59;4992617;28;20059;-66
2023/11/21 01:47:13;;;;;;;1.55;1.23;;;;;;;21.17;45.32;101076.13;5047822;28;22047;-66
2023/11/21 01:49:40;;;;;;;2.60;1.70;;;;;;;21.19;45.37;101068.84;4980081;28;20853;-66
2023/11/21 01:52:06;;;;;;;2.53;1.50;;;;;;;21.08;45.16;101060.34;5058933;28;20047;-66
2023/11/21 01:54:32;;;;;;;1.38;0.95;;;;;;;21.11;45.22;101073.22;4949783;28;20878;-72
2023/11/21 01:57:02;;;;;;;1.83;1.40;;;;;;;21.18;45.28;101078.59;5049995;28;20035;-72
2023/11/21 01:59:37;;;;;;;1.90;1.30;;;;;;;21.10;45.08;101074.22;5011038;28;20036;-72
2023/11/21 02:02:07;;;;;;;1.85;1.50;;;;;;;21.17;45.16;101082.25;5040543;28;20474;-72
2023/11/21 02:04:34;;;;;;;2.95;1.45;;;;;;;21.19;45.33;101090.03;5005881;28;20680;-72
2023/11/21 02:07:02;;;;;;;2.35;1.52;;;;;;;21.18;45.24;101088.38;5062957;28;20032;-73
2023/11/21 02:09:29;;;;;;;1.83;1.42;;;;;;;21.18;45.09;101091.84;4984312;28;20033;-73
2023/11/21 02:11:55;;;;;;;2.05;1.20;;;;;;;21.11;45.34;101088.28;5066478;28;21276;-72
2023/11/21 02:14:22;;;;;;;1.48;1.27;;;;;;;21.13;45.01;101091.56;4992054;28;21736;-72
2023/11/21 02:16:50;;;;;;;2.55;1.27;;;;;;;21.18;45.00;101106.91;5026248;28;20490;-67
2023/11/21 02:19:25;;;;;;;3.28;1.58;;;;;;;21.13;45.28;101100.34;5017267;28;20040;-67
2023/11/21 02:21:52;;;;;;;2.15;1.27;;;;;;;21.14;45.23;101109.09;5062994;28;20073;-67
2023/11/21 02:24:21;;;;;;;3.25;1.52;;;;;;;21.11;45.44;101096.22;5053000;28;20378;-67
2023/11/21 02:26:47;;;;;;;3.53;1.80;;;;;;;21.15;45.16;101115.22;5049553;28;20131;-67
2023/11/21 02:29:13;;;;;;;4.40;1.58;;;;;;;21.17;45.13;101121.97;5016289;28;20064;-67
2023/11/21 02:31:47;;;;;;;2.42;1.35;;;;;;;21.17;45.30;101131.75;5051393;28;20086;-67
2023/11/21 02:34:17;;;;;;;2.13;1.30;;;;;;;21.16;45.29;101130.09;4995228;28;20075;-67
2023/11/21 02:36:44;;;;;;;1.38;1.10;;;;;;;21.11;45.30;101123.53;5049707;28;20699;-67
2023/11/21 02:39:11;;;;;;;1.33;1.23;;;;;;;21.15;45.30;101133.75;5002231;28;20044;-69
2023/11/21 02:41:40;;;;;;;2.60;1.60;;;;;;;21.16;45.24;101140.69;5046400;28;20449;-70
2023/11/21 02:44:08;;;;;;;1.27;1.17;;;;;;;21.12;45.28;101138.41;5015358;28;22299;-69
2023/11/21 02:46:35;;;;;;;3.15;1.40;;;;;;;21.07;45.28;101129.38;5064055;28;20036;-70
2023/11/21 02:49:02;;;;;;;2.13;1.40;;;;;;;21.15;45.37;101141.69;4993242;28;22744;-70
2023/11/21 02:51:27;;;;;;;2.97;1.48;;;;;;;21.14;44.97;101143.53;5045633;28;20133;-67
2023/11/21 02:53:53;;;;;;;2.33;1.27;;;;;;;21.16;45.10;101136.22;5007390;28;20154;-72
2023/11/21 02:56:19;;;;;;;3.65;1.77;;;;;;;21.12;45.36;101133.13;5005997;28;20037;-72
2023/11/21 02:58:44;;;;;;;2.42;1.75;;;;;;;21.15;45.27;101139.88;5043701;28;20071;-72
2023/11/21 03:01:10;;;;;;;3.47;1.40;;;;;;;21.16;45.44;101132.75;5052861;28;20024;-73
2023/11/21 03:03:40;;;;;;;2.15;1.15;;;;;;;21.15;44.97;101137.22;5054661;28;20128;-72
2023/11/21 03:06:06;;;;;;;2.20;1.30;;;;;;;21.14;45.32;101140.88;5047277;28;20093;-72
2023/11/21 03:08:33;;;;;;;2.08;1.38;;;;;;;21.14;45.20;101140.88;5067180;28;20682;-73
2023/11/21 03:10:58;;;;;;;1.45;1.20;;;;;;;21.13;45.15;101140.06;5018500;28;20039;-73
2023/11/21 03:13:24;;;;;;;2.60;1.38;;;;;;;21.11;45.24;101150.00;5047419;28;20520;-72
2023/11/21 03:15:50;;;;;;;3.33;1.40;;;;;;;21.13;45.31;101149.81;4994758;28;20052;-72
2023/11/21 03:18:15;;;;;;;2.53;1.58;;;;;;;21.09;45.19;101146.72;5070027;28;20036;-72
2023/11/21 03:20:41;;;;;;;2.35;1.50;;;;;;;21.13;45.26;101160.41;5014224;28;20027;-72
2023/11/21 03:23:07;;;;;;;2.38;1.55;;;;;;;21.12;44.93;101162.25;5058431;28;20032;-72
2023/11/21 03:25:32;;;;;;;1.40;1.30;;;;;;;21.09;45.13;101165.25;4991102;28;20522;-72
2023/11/21 03:27:58;;;;;;;2.70;1.63;;;;;;;21.11;45.05;101162.44;5032779;28;20052;-72
2023/11/21 03:30:23;;;;;;;1.67;1.40;;;;;;;21.10;45.34;101166.91;5061400;28;20033;-72
2023/11/21 03:32:49;;;;;;;3.42;1.58;;;;;;;21.06;45.13;101155.03;5012358;28;20032;-72
2023/11/21 03:35:14;;;;;;;2.17;1.45;;;;;;;21.12;44.90;101172.00;5057309;28;20497;-72
2023/11/21 03:37:41;;;;;;;1.92;1.25;;;;;;;21.11;45.11;101179.13;4994200;28;20040;-72
2023/11/21 03:40:12;;;;;;;3.30;1.50;;;;;;;21.12;45.04;101186.06;5044959;28;20596;-72
2023/11/21 03:42:38;;;;;;;2.58;1.40;;;;;;;21.12;45.24;101178.13;5001697;28;20066;-66
2023/11/21 03:45:05;;;;;;;3.70;1.70;;;;;;;21.12;45.04;101191.38;5059766;28;20747;-72
2023/11/21 03:47:30;;;;;;;1.83;1.17;;;;;;;21.10;45.21;101190.72;5005395;28;20048;-72
2023/11/21 03:49:56;;;;;;;1.73;1.55;;;;;;;21.09;45.01;101190.91;5014546;28;20128;-68
2023/11/21 03:52:22;;;;;;;1.98;1.38;;;;;;;21.10;45.25;101193.38;4917498;28;20840;-66
2023/11/21 03:54:47;;;;;;;2.60;1.30;;;;;;;21.01;45.16;101180.41;5061636;28;20032;-65
2023/11/21 03:57:13;;;;;;;2.83;1.67;;;;;;;21.05;44.91;101200.22;4992802;28;21123;-68
2023/11/21 03:59:42;;;;;;;2.50;1.70;;;;;;;21.10;45.07;101206.63;5063540;28;20393;-68
2023/11/21 04:02:08;;;;;;;2.38;1.30;;;;;;;21.10;44.91;101209.25;5010270;28;20599;-68
2023/11/21 04:04:34;;;;;;;2.40;1.83;;;;;;;21.09;45.19;101210.28;5065913;28;20116;-69
2023/11/21 04:07:00;;;;;;;2.95;1.58;;;;;;;21.10;44.95;101213.75;5023406;28;20424;-68
2023/11/21 04:09:26;;;;;;;2.22;1.58;;;;;;;21.12;45.27;101214.38;5043542;28;20044;-68
2023/11/21 04:11:52;;;;;;;4.10;1.70;;;;;;;21.05;44.98;101210.81;5053503;28;20482;-68
2023/11/21 04:14:18;;;;;;;2.28;1.80;;;;;;;21.04;45.27;101215.28;5024381;28;20039;-68
2023/11/21 04:16:44;;;;;;;2.63;1.60;;;;;;;21.00;44.98;101211.31;5064480;28;20043;-68
2023/11/21 04:19:10;;;;;;;2.13;1.42;;;;;;;21.11;45.07;101232.09;5009357;28;20050;-69
2023/11/21 04:21:37;;;;;;;2.40;1.77;;;;;;;21.08;44.98;101229.81;5066581;28;20032;-68
2023/11/21 04:24:03;;;;;;;2.22;1.85;;;;;;;21.05;44.91;101232.81;5008752;28;20036;-69
2023/11/21 04:26:28;;;;;;;3.58;1.50;;;;;;;21.08;45.05;101244.88;5065028;28;20028;-68
2023/11/21 04:28:54;;;;;;;3.53;1.90;;;;;;;20.86;45.13;101208.66;5009025;28;20392;-68
2023/11/21 04:31:19;;;;;;;2.13;1.40;;;;;;;21.04;45.14;101239.13;5068100;28;20040;-68
2023/11/21 04:33:45;;;;;;;2.63;1.80;;;;;;;21.09;45.00;101249.16;4990762;28;20049;-68
2023/11/21 04:36:10;;;;;;;2.20;1.60;;;;;;;21.02;45.00;101242.94;5063949;28;20041;-68
2023/11/21 04:38:36;;;;;;;2.83;1.70;;;;;;;21.07;45.35;101253.81;5046738;28;20112;-68
2023/11/21 04:41:02;;;;;;;3.47;1.80;;;;;;;21.08;44.98;101268.72;5002251;28;20056;-69
2023/11/21 04:43:27;;;;;;;2.33;1.35;;;;;;;21.05;45.13;101264.59;5068817;28;20036;-68
2023/11/21 04:45:54;;;;;;;2.55;1.50;;;;;;;21.08;44.96;101276.66;5007424;28;20409;-68
2023/11/21 04:48:20;;;;;;;1.95;1.38;;;;;;;21.08;44.97;101279.28;5065484;28;20036;-69
2023/11/21 04:50:45;;;;;;;2.17;1.42;;;;;;;21.05;44.95;101283.13;5012832;28;20044;-68
2023/11/21 04:53:14;;;;;;;3.20;1.58;;;;;;;21.06;44.95;101298.00;5026885;28;20047;-66
2023/11/21 04:55:40;;;;;;;2.38;1.60;;;;;;;21.07;45.20;101297.00;5004733;28;20135;-66
2023/11/21 04:58:06;;;;;;;2.20;1.63;;;;;;;21.01;45.05;101295.09;5055488;28;20087;-66
2023/11/21 05:00:31;;;;;;;2.63;1.73;;;;;;;21.08;45.14;101311.06;5011158;28;20045;-66
2023/11/21 05:02:57;;;;;;;3.13;1.83;;;;;;;21.09;44.85;101318.00;5048012;28;20360;-66
2023/11/21 05:05:23;;;;;;;2.55;1.65;;;;;;;21.08;45.14;101326.97;4990381;28;20375;-66
2023/11/21 05:07:49;;;;;;;2.28;1.63;;;;;;;21.08;45.16;101324.31;5059795;28;20397;-66
2023/11/21 05:10:14;;;;;;;4.53;1.70;;;;;;;21.03;44.94;101322.19;5013882;28;20052;-66
2023/11/21 05:12:41;;;;;;;2.85;1.50;;;;;;;21.07;45.13;101335.91;5065982;28;20106;-66
2023/11/21 05:15:11;;;;;;;2.95;1.85;;;;;;;21.07;45.02;101335.91;5013156;28;20740;-66
2023/11/21 05:17:38;;;;;;;3.80;2.30;;;;;;;21.05;45.13;101346.69;5048901;28;20047;-66
2023/11/21 05:20:08;;;;;;;1.77;1.60;;;;;;;21.06;44.91;101347.50;5014467;28;20043;-66
2023/11/21 05:22:34;;;;;;;2.92;1.83;;;;;;;21.03;45.10;101351.31;5050977;28;20032;-66
2023/11/21 05:25:00;;;;;;;2.08;1.63;;;;;;;21.05;45.13;101362.56;4981205;28;20048;-66
2023/11/21 05:27:26;;;;;;;2.50;1.50;;;;;;;21.06;44.99;101366.88;5063980;28;20048;-66
2023/11/21 05:29:51;;;;;;;2.30;1.40;;;;;;;21.02;45.05;101367.41;5013420;28;20063;-68
2023/11/21 05:32:17;;;;;;;2.50;1.52;;;;;;;21.02;44.93;101365.56;5065832;28;20040;-68
2023/11/21 05:34:43;;;;;;;2.85;1.48;;;;;;;20.97;44.96;101359.13;5007993;28;20573;-68
2023/11/21 05:37:08;;;;;;;2.08;1.70;;;;;;;21.04;45.15;101374.16;5045839;28;20040;-68
2023/11/21 05:39:35;;;;;;;1.75;1.42;;;;;;;20.93;45.15;101358.66;5054783;28;20039;-68
2023/11/21 05:42:01;;;;;;;3.85;1.70;;;;;;;21.07;45.27;101383.56;5063259;28;20660;-68
2023/11/21 05:44:27;;;;;;;3.15;1.38;;;;;;;21.02;45.17;101389.41;5018000;28;20044;-69
2023/11/21 05:46:53;;;;;;;2.13;1.65;;;;;;;20.98;45.22;101380.13;5066041;28;20036;-69
2023/11/21 05:49:21;;;;;;;2.65;1.38;;;;;;;21.03;44.89;101396.34;4995421;28;20044;-68
2023/11/21 05:51:47;;;;;;;2.53;1.63;;;;;;;21.00;45.49;101398.47;5063283;28;20114;-68
2023/11/21 05:54:13;;;;;;;2.40;1.50;;;;;;;21.05;45.09;101412.88;5010152;28;20141;-68
2023/11/21 05:56:38;;;;;;;3.03;1.67;;;;;;;20.96;45.21;101403.31;5061952;28;20094;-68
2023/11/21 05:59:04;;;;;;;1.83;1.27;;;;;;;20.95;45.16;101404.31;5012384;28;20040;-66
2023/11/21 06:01:29;;;;;;;2.20;1.52;;;;;;;21.07;45.20;101428.59;5056508;28;20076;-66
2023/11/21 06:03:55;;;;;;;2.63;1.80;;;;;;;21.06;45.07;101434.88;5018603;28;20114;-66
2023/11/21 06:06:22;;;;;;;3.42;1.80;;;;;;;21.01;45.30;101426.66;5069095;28;20090;-66
2023/11/21 06:08:48;;;;;;;2.45;1.38;;;;;;;21.07;45.32;101439.19;5008270;28;20378;-66
2023/11/21 06:11:16;;;;;;;2.63;1.40;;;;;;;21.02;45.26;101442.34;5073830;28;20055;-66
2023/11/21 06:13:41;;;;;;;2.60;1.52;;;;;;;21.05;45.41;101446.47;5003498;28;20388;-66
2023/11/21 06:16:07;;;;;;;2.03;1.67;;;;;;;21.06;45.29;101451.59;5067898;28;20049;-66
2023/11/21 06:18:33;;;;;;;1.58;1.48;;;;;;;20.98;45.14;101443.69;5007862;28;20149;-66
2023/11/21 06:21:00;;;;;;;1.83;1.50;;;;;;;21.04;45.13;101452.78;5071701;28;20067;-66
2023/11/21 06:23:26;;;;;;;1.55;1.45;;;;;;;21.08;45.38;101465.50;4991282;28;21605;-67
2023/11/21 06:25:52;;;;;;;2.03;1.55;;;;;;;21.09;45.38;101466.31;5063859;28;20044;-66
2023/11/21 06:28:18;;;;;;;1.58;1.45;;;;;;;21.08;45.14;101462.84;5016970;28;21153;-66
2023/11/21 06:30:45;;;;;;;1.42;1.33;;;;;;;21.07;45.37;101477.06;5066985;28;20025;-66
2023/11/21 06:33:11;;;;;;;2.40;1.38;;;;;;;21.03;45.32;101467.84;4986960;28;20029;-66
2023/11/21 06:35:36;;;;;;;1.83;1.30;;;;;;;21.05;45.24;101479.06;5068733;28;20103;-66
2023/11/21 06:38:03;;;;;;;2.15;1.88;;;;;;;21.06;45.25;101493.13;5044386;28;20511;-66
2023/11/21 06:40:28;;;;;;;1.38;1.02;;;;;;;21.03;45.40;101491.66;5017267;28;20032;-66
2023/11/21 06:42:55;;;;;;;1.92;1.67;;;;;;;21.05;45.13;101497.63;5068949;28;20859;-66
2023/11/21 06:45:21;;;;;;;3.25;1.50;;;;;;;21.09;45.33;101506.84;4998499;28;20978;-66
2023/11/21 06:47:46;;;;;;;1.52;1.40;;;;;;;21.05;45.52;101507.38;5068650;28;20107;-66
2023/11/21 06:50:12;;;;;;;2.05;1.35;;;;;;;21.09;45.08;101520.09;4994298;28;20040;-67
2023/11/21 06:52:38;;;;;;;2.15;1.45;;;;;;;21.11;45.46;101517.28;5038625;28;20039;-67
2023/11/21 06:55:04;;;;;;;2.13;1.70;;;;;;;21.05;45.36;101518.78;4978417;28;21470;-73
2023/11/21 06:57:31;;;;;;;1.83;1.52;;;;;;;21.10;45.07;101529.69;5065147;28;20064;-73
2023/11/21 06:59:57;;;;;;;1.60;1.50;;;;;;;21.08;45.42;101526.41;5039979;28;20799;-66
2023/11/21 07:02:23;;;;;;;2.85;1.67;;;;;;;21.06;45.51;101528.38;5030541;28;20043;-73
2023/11/21 07:04:48;;;;;;;1.60;1.50;;;;;;;21.09;45.39;101529.88;5052971;28;20036;-68
2023/11/21 07:07:14;;;;;;;1.52;1.42;;;;;;;21.10;45.11;101539.47;4965601;28;20040;-72
2023/11/21 07:09:39;;;;;;;2.00;1.30;;;;;;;21.10;45.35;101550.06;5050317;28;20090;-68
2023/11/21 07:12:07;;;;;;;2.70;1.75;;;;;;;21.11;45.33;101557.81;5004673;28;20120;-73
2023/11/21 07:14:34;;;;;;;1.63;1.38;;;;;;;21.08;45.45;101560.00;5058015;28;20067;-72
2023/11/21 07:16:59;;;;;;;2.13;1.30;;;;;;;21.10;45.27;101573.88;5013879;28;20142;-72
2023/11/21 07:19:25;;;;;;;1.30;1.20;;;;;;;21.04;45.46;101570.09;5050655;28;20036;-72
2023/11/21 07:21:51;;;;;;;1.98;1.42;;;;;;;21.11;45.12;101583.47;5006849;28;20430;-75
2023/11/21 07:24:17;;;;;;;2.70;1.20;;;;;;;21.00;45.18;101563.47;5047490;28;20218;-75
2023/11/21 07:26:42;;;;;;;1.92;1.60;;;;;;;21.02;45.27;101574.75;5008464;28;20048;-72
2023/11/21 07:29:08;;;;;;;2.03;1.40;;;;;;;21.10;45.43;101584.47;5070219;28;20059;-72
2023/11/21 07:31:34;;;;;;;2.28;1.15;;;;;;;21.10;45.40;101587.94;4990063;28;20045;-72
2023/11/21 07:34:00;;;;;;;1.80;1.27;;;;;;;21.08;45.39;101595.25;5045112;28;20825;-72
2023/11/21 07:36:26;;;;;;;2.53;1.75;;;;;;;21.09;45.39;101601.38;5009519;28;20801;-72
2023/11/21 07:38:52;;;;;;;2.03;1.52;;;;;;;21.10;45.40;101611.78;5061059;28;20048;-72
2023/11/21 07:41:18;;;;;;;2.25;1.35;;;;;;;21.11;45.39;101616.09;5008341;28;20506;-72
2023/11/21 07:43:47;;;;;;;1.48;1.23;;;;;;;21.11;45.52;101618.75;5066853;28;20097;-74
2023/11/21 07:46:13;;;;;;;1.88;1.50;;;;;;;21.09;45.33;101630.50;4967446;28;20133;-68
2023/11/21 07:48:40;;;;;;;1.92;1.40;;;;;;;21.11;45.32;101636.44;5070204;28;20089;-69
2023/11/21 07:51:09;;;;;;;1.75;1.20;;;;;;;21.07;45.32;101633.31;5052165;28;20511;-69
2023/11/21 07:53:36;;;;;;;1.48;1.20;;;;;;;21.09;45.16;101638.44;5010792;28;20043;-69
2023/11/21 07:56:05;;;;;;;1.20;1.10;;;;;;;21.08;45.43;101640.25;5066304;28;20042;-69
2023/11/21 07:58:33;;;;;;;2.92;1.60;;;;;;;21.09;45.36;101641.09;5013398;28;20041;-69
2023/11/21 08:00:59;;;;;;;1.75;1.40;;;;;;;21.10;45.58;101654.16;5063785;28;20043;-68
2023/11/21 08:03:29;;;;;;;2.63;1.70;;;;;;;21.12;45.59;101656.63;5005506;28;20086;-69
2023/11/21 08:05:56;;;;;;;1.77;1.05;;;;;;;21.11;45.20;101658.47;5045543;28;20040;-69
2023/11/21 08:08:22;;;;;;;1.40;1.30;;;;;;;21.11;45.28;101662.94;5008816;28;20206;-69
2023/11/21 08:10:48;;;;;;;1.67;1.30;;;;;;;21.10;45.25;101663.94;5053493;28;20401;-69
2023/11/21 08:13:17;;;;;;;1.42;1.20;;;;;;;21.11;45.42;101678.81;5019257;28;20064;-68
2023/11/21 08:15:45;;;;;;;1.95;1.30;;;;;;;21.07;45.28;101677.50;5068033;28;20052;-69
2023/11/21 08:18:12;;;;;;;1.73;1.38;;;;;;;21.11;45.45;101695.53;5015930;28;20075;-69
2023/11/21 08:20:39;;;;;;;1.58;1.30;;;;;;;21.11;45.16;101708.78;5064482;28;20554;-70
2023/11/21 08:23:05;;;;;;;1.85;1.38;;;;;;;21.07;45.07;101696.06;5005506;28;20040;-68
2023/11/21 08:25:34;;;;;;;2.30;1.40;;;;;;;21.12;45.24;101702.50;5066723;28;20042;-69
2023/11/21 08:28:00;;;;;;;1.80;1.52;;;;;;;21.03;45.40;101690.25;5012205;28;20383;-70
2023/11/21 08:30:29;;;;;;;1.90;1.30;;;;;;;21.11;45.23;101718.56;5063232;28;20048;-70
2023/11/21 08:32:57;;;;;;;2.25;1.50;;;;;;;21.13;45.43;101725.34;5008830;28;20064;-70
2023/11/21 08:35:24;;;;;;;1.73;1.15;;;;;;;21.09;45.44;101716.06;5058229;28;20052;-70
2023/11/21 08:37:52;;;;;;;2.08;1.38;;;;;;;21.12;45.40;101726.31;5011793;28;20052;-70
2023/11/21 08:40:20;;;;;;;1.30;1.20;;;;;;;21.05;45.31;101717.41;5062434;28;20056;-69
2023/11/21 08:42:45;;;;;;;1.60;1.30;;;;;;;21.05;45.38;101728.00;5010688;28;20115;-69
2023/11/21 08:45:12;;;;;;;2.03;1.60;;;;;;;21.11;45.06;101740.56;5063219;28;20032;-69
2023/11/21 08:47:39;;;;;;;2.45;1.40;;;;;;;21.06;45.43;101739.41;5013723;28;20040;-69
2023/11/21 08:50:07;;;;;;;1.30;1.20;;;;;;;21.00;45.38;101734.75;5051794;28;20064;-69
2023/11/21 08:52:36;;;;;;;2.38;1.80;;;;;;;21.08;45.34;101753.31;5056622;28;20040;-69
2023/11/21 08:55:07;;;;;;;1.98;1.65;;;;;;;21.11;45.14;101753.81;5035503;28;20458;-69
2023/11/21 08:57:37;;;;;;;2.10;1.60;;;;;;;21.13;45.08;101751.81;5016239;28;20040;-69
2023/11/21 09:00:11;;;;;;;2.25;1.80;;;;;;;21.12;45.27;101751.97;5031336;28;20037;-69
2023/11/21 09:02:41;;;;;;;2.17;1.42;;;;;;;21.09;45.20;101749.66;5071833;28;20032;-69
2023/11/21 09:05:11;;;;;;;2.78;1.92;;;;;;;21.17;45.24;101760.25;5019872;28;20500;-69
2023/11/21 09:07:39;;;;;;;2.00;1.60;;;;;;;21.20;44.92;101762.59;5052380;28;20111;-69
2023/11/21 09:10:07;;;;;;;2.03;1.67;;;;;;;21.17;44.92;101762.91;5027511;28;20028;-68
2023/11/21 09:12:37;;;;;;;1.95;1.65;;;;;;;21.17;44.96;101767.38;5058822;28;20044;-68
2023/11/21 09:15:07;;;;;;;2.13;1.90;;;;;;;21.20;44.63;101777.66;5015228;28;20056;-69
2023/11/21 09:17:38;;;;;;;2.78;2.00;;;;;;;21.20;44.70;101778.50;5038455;28;20036;-70
2023/11/21 09:20:09;;;;;;;2.10;1.60;;;;;;;21.23;44.71;101783.44;5010441;28;20028;-68
2023/11/21 09:22:35;;;;;;;2.33;1.90;;;;;;;21.23;44.72;101794.03;5059355;28;20041;-69
2023/11/21 09:25:01;;;;;;;1.77;1.60;;;;;;;21.25;44.92;101799.19;5039283;28;20608;-68
2023/11/21 09:27:27;;;;;;;2.38;1.90;;;;;;;21.16;44.87;101784.25;5022008;28;20051;-69
2023/11/21 09:29:53;;;;;;;2.90;2.10;;;;;;;21.08;44.94;101779.81;5034565;28;20456;-68
2023/11/21 09:32:19;;;;;;;2.55;2.15;;;;;;;21.19;44.61;101807.78;5050045;28;20045;-69
2023/11/21 09:34:45;;;;;;;2.80;2.10;;;;;;;21.18;44.59;101812.22;5065024;28;20046;-69
2023/11/21 09:37:14;;;;;;;3.28;1.90;;;;;;;21.18;44.87;101817.53;5009716;28;20618;-69
2023/11/21 09:39:40;;;;;;;2.28;1.70;;;;;;;21.22;44.83;101824.19;5064138;28;20461;-69
2023/11/21 09:42:10;;;;;;;2.30;1.98;;;;;;;21.23;44.78;101828.47;4994153;28;20040;-69
2023/11/21 09:45:13;;;;;;;2.10;1.90;;;;;;;21.12;44.83;101821.66;5065350;28;20855;-69
2023/11/21 09:47:39;;;;;;;2.10;1.90;;;;;;;21.24;44.83;101840.75;4961668;28;20071;-69
2023/11/21 09:50:08;;;;;;;2.15;1.90;;;;;;;21.25;44.82;101847.72;5055151;28;20040;-69
2023/11/21 09:52:49;;;;;;;3.30;2.55;;;;;;;21.17;44.88;101834.41;5000560;28;20469;-69
2023/11/21 09:55:18;;;;;;;2.35;1.80;;;;;;;21.13;44.43;101831.28;5062763;28;20043;-69
2023/11/21 09:57:45;;;;;;;2.25;1.80;;;;;;;21.17;44.45;101842.38;5015883;28;20058;-69
2023/11/21 10:00:12;;;;;;;2.10;1.90;;;;;;;21.25;44.81;101860.13;5067855;28;20048;-68
2023/11/21 10:02:40;;;;;;;2.67;2.08;;;;;;;21.25;44.34;101862.78;5011060;28;20051;-69
2023/11/21 10:05:07;;;;;;;3.35;2.08;;;;;;;21.24;44.61;101871.69;5061636;28;20048;-69
2023/11/21 10:07:34;;;;;;;2.38;2.03;;;;;;;21.17;44.68;101868.03;5011324;28;20064;-68
2023/11/21 10:10:01;;;;;;;2.65;2.05;;;;;;;21.23;44.39;101872.69;5068582;28;20036;-68
2023/11/21 10:12:28;;;;;;;2.83;2.40;;;;;;;21.23;44.53;101880.63;5010262;28;20044;-69
2023/11/21 10:14:56;;;;;;;2.40;2.20;;;;;;;21.26;44.54;101889.09;5043098;28;20544;-68
2023/11/21 10:17:29;;;;;;;2.17;1.85;;;;;;;21.28;44.25;101897.72;5006245;28;20478;-68
2023/11/21 10:19:55;;;;;;;1.73;1.60;;;;;;;21.27;44.29;101904.00;5064591;28;20040;-68
2023/11/21 10:22:21;;;;;;;2.30;1.92;;;;;;;21.24;44.30;101895.53;4986542;28;20646;-74
2023/11/21 10:24:47;;;;;;;2.03;1.80;;;;;;;21.22;44.47;101900.16;5060815;28;20162;-74
2023/11/21 10:27:13;;;;;;;4.68;2.45;;;;;;;21.29;44.53;101909.16;5011545;28;20048;-74
2023/11/21 10:29:42;;;;;;;3.22;2.15;;;;;;;21.28;44.63;101918.09;5063207;28;20441;-74
2023/11/21 10:32:07;;;;;;;3.03;2.03;;;;;;;21.27;44.18;101922.56;5009686;28;20418;-75
2023/11/21 10:34:33;;;;;;;2.80;1.90;;;;;;;21.29;44.19;101923.22;5048132;28;20048;-74
2023/11/21 10:37:11;;;;;;;2.20;1.95;;;;;;;21.27;44.42;101927.84;4993613;28;20048;-75
2023/11/21 10:39:36;;;;;;;2.63;2.13;;;;;;;21.20;44.08;101918.88;5057232;28;21014;-75
2023/11/21 10:42:02;;;;;;;2.67;2.35;;;;;;;21.24;44.42;101919.38;5000272;28;20053;-74
2023/11/21 10:44:28;;;;;;;2.10;1.90;;;;;;;21.28;44.16;101929.50;5066858;28;20060;-74
2023/11/21 10:46:57;;;;;;;2.33;2.08;;;;;;;21.19;44.33;101932.28;5011291;28;20048;-74
2023/11/21 10:49:29;;;;;;;2.10;1.83;;;;;;;21.23;44.31;101937.09;5044759;28;20041;-74
2023/11/21 10:51:57;;;;;;;2.28;1.95;;;;;;;21.21;44.40;101922.34;5063883;28;20398;-75
2023/11/21 10:54:25;;;;;;;2.83;2.28;;;;;;;21.27;44.41;101938.44;5004866;28;20040;-74
2023/11/21 10:56:56;;;;;;;2.15;1.80;;;;;;;21.26;44.67;101934.13;5064998;28;20035;-72
2023/11/21 10:59:25;;;;;;;2.95;2.20;;;;;;;21.30;44.56;101937.28;5008742;28;20143;-76
2023/11/21 11:01:52;;;;;;;2.17;1.92;;;;;;;21.32;44.42;101937.94;5063220;28;20097;-76
2023/11/21 11:04:22;;;;;;;2.95;2.15;;;;;;;21.32;44.53;101944.06;5009341;28;20048;-75
2023/11/21 11:06:55;;;;;;;2.83;1.95;;;;;;;21.31;44.56;101937.13;5051824;28;20136;-75
2023/11/21 11:09:24;;;;;;;2.92;2.15;;;;;;;21.30;44.46;101945.25;5006481;28;20099;-75
2023/11/21 11:11:51;;;;;;;2.22;2.03;;;;;;;21.29;44.18;101944.41;5058915;28;20024;-75
2023/11/21 11:14:19;;;;;;;2.88;1.90;;;;;;;21.37;44.19;101954.22;5017282;28;20294;-75
2023/11/21 11:16:45;;;;;;;3.03;1.80;;;;;;;21.35;44.29;101951.69;5066674;28;20056;-75
2023/11/21 11:19:12;;;;;;;2.63;2.05;;;;;;;21.33;44.45;101951.03;4975877;28;20032;-74
2023/11/21 11:21:53;;;;;;;2.25;2.05;;;;;;;21.36;44.43;101963.13;5063598;28;20036;-75
2023/11/21 11:24:27;;;;;;;2.10;1.90;;;;;;;21.36;44.48;101963.97;5003191;28;20169;-75
2023/11/21 11:27:08;;;;;;;2.38;1.90;;;;;;;21.33;44.50;101964.28;5056566;28;20036;-74